Time;durP1;ratioP1;P1;durP2;ratioP2;P2;SDS_P1;SDS_P2;PMS_P1;PMS_P2;Temp;Humidity;BMP_temperature;BMP_pressure;BME280_temperature;BME280_humidity;BME280_pressure;Samples;Min_cycle;Max_cycle;Signal;HPM_P1;HPM_P2
2023/07/01 00:00:25;;;;;;;2.67;2.43;;;17.30;99.90;;;;;;5053301;28;20464;-72
2023/07/01 00:02:53;;;;;;;2.93;2.10;;;17.30;99.90;;;;;;5101506;22;20480;-93
2023/07/01 00:05:20;;;;;;;2.37;2.17;;;17.30;99.90;;;;;;5064158;28;20479;-93
2023/07/01 00:07:48;;;;;;;3.20;2.20;;;17.20;99.90;;;;;;5055332;28;20455;-92
2023/07/01 00:10:15;;;;;;;2.20;2.00;;;17.20;99.90;;;;;;5053336;28;20460;-92
2023/07/01 00:12:41;;;;;;;2.20;1.80;;;17.20;99.90;;;;;;5055270;28;20480;-92
2023/07/01 00:15:09;;;;;;;2.33;2.03;;;17.10;99.90;;;;;;5058975;28;20460;-92
2023/07/01 00:17:36;;;;;;;2.20;2.00;;;17.10;99.90;;;;;;5059885;28;20534;-93
2023/07/01 00:20:04;;;;;;;2.60;2.13;;;17.00;99.90;;;;;;5057541;28;20466;-92
2023/07/01 00:22:31;;;;;;;2.70;1.93;;;17.00;99.90;;;;;;5058587;28;20464;-92
2023/07/01 00:24:58;;;;;;;2.73;2.33;;;17.00;99.90;;;;;;5052712;28;20460;-92
2023/07/01 00:27:25;;;;;;;2.27;2.07;;;17.00;99.90;;;;;;5051728;28;20483;-92
2023/07/01 00:29:51;;;;;;;3.20;1.90;;;16.90;99.90;;;;;;5054635;28;20464;-92
2023/07/01 00:32:18;;;;;;;2.07;1.87;;;16.90;99.90;;;;;;5057469;28;20458;-91
2023/07/01 00:34:45;;;;;;;2.53;2.17;;;16.90;99.90;;;;;;5054430;28;20463;-92
2023/07/01 00:37:13;;;;;;;2.33;2.10;;;16.80;99.90;;;;;;5052926;28;20453;-92
2023/07/01 00:39:40;;;;;;;1.70;1.47;;;16.80;99.90;;;;;;5052027;28;20467;-91
2023/07/01 00:42:07;;;;;;;3.03;1.80;;;16.80;99.90;;;;;;5055119;28;20455;-92
2023/07/01 00:44:33;;;;;;;3.53;2.43;;;16.80;99.90;;;;;;5055370;28;20480;-92
2023/07/01 00:47:00;;;;;;;2.70;2.17;;;16.80;99.90;;;;;;5051785;28;20465;-92
2023/07/01 00:49:28;;;;;;;2.43;2.23;;;16.80;99.90;;;;;;5051619;28;20467;-93
2023/07/01 00:51:54;;;;;;;3.07;2.00;;;16.70;99.90;;;;;;5054558;28;20456;-94
2023/07/01 00:54:23;;;;;;;2.47;1.80;;;16.70;99.90;;;;;;5055864;28;20480;-91
2023/07/01 00:56:50;;;;;;;4.60;2.10;;;16.70;99.90;;;;;;5054566;28;20463;-93
2023/07/01 00:59:16;;;;;;;1.93;1.73;;;16.70;99.90;;;;;;5053009;28;20459;-92
2023/07/01 01:01:47;;;;;;;3.97;1.80;;;16.70;99.90;;;;;;5051517;28;20471;-92
2023/07/01 01:04:29;;;;;;;2.23;2.03;;;16.60;99.90;;;;;;5054531;28;20490;-92
2023/07/01 01:07:02;;;;;;;2.30;2.10;;;16.60;99.90;;;;;;5051919;28;20485;-92
2023/07/01 01:09:37;;;;;;;1.73;1.60;;;16.50;99.90;;;;;;5053514;28;20543;-93
2023/07/01 01:12:07;;;;;;;2.50;2.17;;;16.50;99.90;;;;;;5056462;28;20466;-92
2023/07/01 01:14:36;;;;;;;1.97;1.77;;;16.50;99.90;;;;;;5061962;28;20490;-93
2023/07/01 01:17:04;;;;;;;2.40;2.20;;;16.40;99.90;;;;;;5062178;28;20449;-92
2023/07/01 01:19:38;;;;;;;3.60;2.33;;;16.40;99.90;;;;;;5059213;28;20503;-92
2023/07/01 01:22:14;;;;;;;2.53;2.27;;;16.30;99.90;;;;;;5056407;28;20513;-92
2023/07/01 01:24:43;;;;;;;2.43;2.00;;;16.30;99.90;;;;;;5057958;28;20566;-93
2023/07/01 01:27:13;;;;;;;3.00;1.80;;;16.20;99.90;;;;;;5046294;28;20484;-92
2023/07/01 01:29:42;;;;;;;5.73;2.27;;;16.20;99.90;;;;;;5059105;28;20461;-92
2023/07/01 01:32:10;;;;;;;3.00;2.03;;;16.10;99.90;;;;;;5048032;28;20468;-92
2023/07/01 01:34:37;;;;;;;2.60;1.83;;;16.10;99.90;;;;;;5055595;28;20483;-92
2023/07/01 01:37:11;;;;;;;2.83;2.00;;;16.10;99.90;;;;;;5064768;28;20460;-93
2023/07/01 01:39:44;;;;;;;2.90;2.10;;;16.10;99.90;;;;;;5056132;28;20466;-93
2023/07/01 01:42:17;;;;;;;2.47;2.23;;;16.00;99.90;;;;;;5048901;28;20468;-91
2023/07/01 01:44:52;;;;;;;2.33;2.13;;;16.00;99.90;;;;;;5055212;28;20903;-93
2023/07/01 01:47:21;;;;;;;2.90;2.57;;;15.90;99.90;;;;;;5057656;28;20506;-91
2023/07/01 01:49:51;;;;;;;4.70;2.20;;;15.90;99.90;;;;;;5060368;28;20448;-93
2023/07/01 01:52:22;;;;;;;2.63;1.90;;;15.90;99.90;;;;;;5064892;28;20456;-91
2023/07/01 01:54:52;;;;;;;2.20;2.00;;;15.90;99.90;;;;;;5055404;28;20464;-92
2023/07/01 01:57:20;;;;;;;3.13;2.20;;;15.80;99.90;;;;;;5061489;28;20453;-92
2023/07/01 01:59:48;;;;;;;3.43;2.50;;;15.80;99.90;;;;;;5053909;28;20456;-92
2023/07/01 02:02:15;;;;;;;2.37;2.17;;;15.80;99.90;;;;;;5058614;28;20460;-92
2023/07/01 02:04:41;;;;;;;2.87;2.30;;;15.80;99.90;;;;;;5058190;28;20491;-91
2023/07/01 02:07:08;;;;;;;2.00;1.80;;;15.70;99.90;;;;;;5056620;28;20472;-93
2023/07/01 02:09:35;;;;;;;4.00;1.87;;;15.70;99.90;;;;;;5059258;28;20470;-92
2023/07/01 02:12:04;;;;;;;3.60;2.57;;;15.70;99.90;;;;;;5063473;28;20482;-92
2023/07/01 02:14:31;;;;;;;2.53;2.33;;;15.70;99.90;;;;;;5064087;28;20504;-93
2023/07/01 02:16:59;;;;;;;2.70;2.43;;;15.70;99.90;;;;;;5065990;28;20527;-92
2023/07/01 02:19:26;;;;;;;3.13;2.23;;;15.70;99.90;;;;;;5068964;28;20440;-92
2023/07/01 02:21:53;;;;;;;3.17;2.50;;;15.60;99.90;;;;;;5067610;28;20454;-93
2023/07/01 02:24:19;;;;;;;2.20;1.93;;;15.60;99.90;;;;;;5065652;28;20480;-93
2023/07/01 02:26:46;;;;;;;4.47;2.40;;;15.60;99.90;;;;;;5065315;28;20472;-92
2023/07/01 02:29:13;;;;;;;2.30;1.93;;;15.60;99.90;;;;;;5068939;28;20457;-92
2023/07/01 02:31:39;;;;;;;3.00;2.50;;;15.60;99.90;;;;;;5068925;28;20440;-93
2023/07/01 02:34:11;;;;;;;3.93;2.20;;;15.50;99.90;;;;;;5065799;28;20457;-95
2023/07/01 02:36:40;;;;;;;2.53;2.07;;;15.60;99.90;;;;;;5064962;28;20444;-92
2023/07/01 02:39:07;;;;;;;3.10;2.17;;;15.60;99.90;;;;;;5068215;28;20448;-91
2023/07/01 02:41:33;;;;;;;2.30;2.10;;;15.50;99.90;;;;;;5068716;28;20451;-93
2023/07/01 02:44:00;;;;;;;3.90;2.87;;;15.50;99.90;;;;;;5065880;28;20475;-92
2023/07/01 02:46:28;;;;;;;2.93;2.20;;;15.50;99.90;;;;;;5061090;28;20461;-94
2023/07/01 02:48:55;;;;;;;2.30;2.10;;;15.50;99.90;;;;;;5058223;28;20499;-92
2023/07/01 02:51:23;;;;;;;4.00;2.53;;;15.50;99.90;;;;;;5060075;28;20471;-93
2023/07/01 02:53:50;;;;;;;2.97;2.40;;;15.40;99.90;;;;;;5060542;28;20494;-93
2023/07/01 02:56:16;;;;;;;3.37;2.30;;;15.40;99.90;;;;;;5063608;28;20467;-92
2023/07/01 02:58:43;;;;;;;4.87;2.50;;;15.40;99.90;;;;;;5054586;28;20532;-92
2023/07/01 03:01:10;;;;;;;3.87;3.10;;;15.40;99.90;;;;;;5055744;28;20460;-92
2023/07/01 03:03:37;;;;;;;5.13;2.60;;;15.40;99.90;;;;;;5055935;28;20513;-92
2023/07/01 03:06:04;;;;;;;2.67;2.30;;;15.40;99.90;;;;;;5052704;28;20466;-92
2023/07/01 03:08:32;;;;;;;4.87;2.50;;;15.30;99.90;;;;;;5059798;28;20459;-92
2023/07/01 03:10:59;;;;;;;3.43;2.60;;;15.40;99.90;;;;;;5054306;28;20464;-92
2023/07/01 03:13:25;;;;;;;2.40;2.10;;;15.40;99.90;;;;;;5054189;28;20471;-94
2023/07/01 03:15:53;;;;;;;2.80;2.40;;;15.30;99.90;;;;;;5052295;28;20457;-92
2023/07/01 03:18:22;;;;;;;3.67;2.60;;;15.30;99.90;;;;;;5052662;28;20483;-93
2023/07/01 03:20:49;;;;;;;2.20;2.00;;;15.30;99.90;;;;;;5052676;28;20471;-92
2023/07/01 03:23:16;;;;;;;2.50;2.03;;;15.30;99.90;;;;;;5056738;28;20480;-92
2023/07/01 03:25:44;;;;;;;2.47;2.20;;;15.30;99.90;;;;;;5055717;28;20463;-92
2023/07/01 03:28:11;;;;;;;2.90;2.17;;;15.20;99.90;;;;;;5061269;28;20480;-93
2023/07/01 03:30:38;;;;;;;2.63;2.30;;;15.20;99.90;;;;;;5062435;28;20455;-92
2023/07/01 03:33:06;;;;;;;2.10;1.90;;;15.10;99.90;;;;;;5064129;28;20485;-91
2023/07/01 03:35:33;;;;;;;2.17;1.97;;;15.10;99.90;;;;;;5058487;28;20548;-93
2023/07/01 03:37:59;;;;;;;3.27;2.73;;;15.10;99.90;;;;;;5056614;28;20456;-93
2023/07/01 03:40:27;;;;;;;2.57;2.37;;;15.00;99.90;;;;;;5058025;28;20534;-93
2023/07/01 03:42:55;;;;;;;3.23;2.53;;;15.00;99.90;;;;;;5056157;28;20475;-92
2023/07/01 03:45:22;;;;;;;2.90;2.60;;;15.00;99.90;;;;;;5053295;28;20470;-93
2023/07/01 03:47:49;;;;;;;3.23;2.43;;;15.00;99.90;;;;;;5052777;28;20484;-93
2023/07/01 03:50:16;;;;;;;3.37;2.70;;;15.00;99.90;;;;;;5056611;28;20466;-91
2023/07/01 03:52:43;;;;;;;2.10;1.90;;;14.90;99.90;;;;;;5055707;28;20475;-92
2023/07/01 03:55:12;;;;;;;3.03;2.27;;;14.90;99.90;;;;;;5056925;28;20463;-92
2023/07/01 03:57:39;;;;;;;2.93;2.60;;;14.90;99.90;;;;;;5053881;28;20483;-93
2023/07/01 04:00:17;;;;;;;2.80;2.33;;;14.90;99.90;;;;;;5054278;28;20464;-92
2023/07/01 04:02:44;;;;;;;4.10;2.60;;;14.90;99.90;;;;;;5057422;28;21003;-92
2023/07/01 04:05:11;;;;;;;2.50;2.20;;;14.80;99.90;;;;;;5057481;28;20460;-92
2023/07/01 04:07:38;;;;;;;3.00;2.50;;;14.90;99.90;;;;;;5056139;28;20480;-92
2023/07/01 04:10:06;;;;;;;2.73;2.53;;;14.90;99.90;;;;;;5057323;28;20463;-92
2023/07/01 04:12:33;;;;;;;2.50;2.30;;;14.90;99.90;;;;;;5059955;28;20490;-92
2023/07/01 04:15:00;;;;;;;2.80;2.60;;;14.90;99.90;;;;;;5057451;28;20459;-92
2023/07/01 04:17:30;;;;;;;3.10;2.20;;;14.90;99.90;;;;;;5050426;28;20462;-92
2023/07/01 04:19:57;;;;;;;2.40;2.20;;;14.90;99.90;;;;;;5058388;28;20456;-92
2023/07/01 04:22:24;;;;;;;4.10;2.50;;;14.90;99.90;;;;;;5055665;28;20461;-91
2023/07/01 04:24:51;;;;;;;3.10;2.60;;;14.90;99.90;;;;;;5055864;28;20460;-92
2023/07/01 04:27:18;;;;;;;3.10;2.40;;;15.00;99.90;;;;;;5048747;28;20855;-91
2023/07/01 04:29:44;;;;;;;3.53;2.67;;;15.00;99.90;;;;;;5056573;28;20460;-92
2023/07/01 04:32:11;;;;;;;3.93;2.83;;;15.00;99.90;;;;;;5060079;28;20556;-94
2023/07/01 04:34:39;;;;;;;2.77;2.20;;;15.00;99.90;;;;;;5059702;28;20550;-93
2023/07/01 04:37:06;;;;;;;2.70;2.40;;;15.00;99.90;;;;;;5057696;28;20460;-92
2023/07/01 04:39:33;;;;;;;2.90;2.33;;;15.10;99.90;;;;;;5056325;28;20452;-92
2023/07/01 04:42:00;;;;;;;2.43;2.23;;;15.10;99.90;;;;;;5064950;28;20456;-92
2023/07/01 04:45:14;;;;;;;2.60;2.40;;;15.10;99.90;;;;;;5058250;28;20480;-93
2023/07/01 04:47:44;;;;;;;3.53;2.50;;;15.10;99.90;;;;;;5035018;28;20484;-92
2023/07/01 04:50:13;;;;;;;2.67;2.47;;;15.10;99.90;;;;;;5059656;28;20457;-91
2023/07/01 04:52:40;;;;;;;2.50;2.30;;;15.10;99.90;;;;;;5044824;28;20476;-91
2023/07/01 04:55:07;;;;;;;2.60;2.40;;;15.10;99.90;;;;;;5046417;28;20460;-91
2023/07/01 04:57:34;;;;;;;3.40;3.10;;;15.20;99.90;;;;;;5047685;28;20482;-91
2023/07/01 05:00:05;;;;;;;2.53;2.33;;;15.20;99.90;;;;;;5046030;28;20463;-90
2023/07/01 05:02:32;;;;;;;2.97;2.60;;;15.30;99.90;;;;;;5043277;28;20456;-90
2023/07/01 05:04:59;;;;;;;2.67;2.47;;;15.30;99.90;;;;;;5044157;28;20957;-90
2023/07/01 05:07:27;;;;;;;2.80;2.60;;;15.40;99.90;;;;;;5046387;28;20488;-91
2023/07/01 05:09:54;;;;;;;5.00;2.20;;;15.40;99.90;;;;;;5046424;28;20470;-89
2023/07/01 05:12:20;;;;;;;2.70;2.27;;;15.50;99.90;;;;;;5020237;28;20478;-90
2023/07/01 05:14:47;;;;;;;3.27;2.90;;;15.60;99.90;;;;;;5044780;28;20470;-90
2023/07/01 05:17:16;;;;;;;2.40;2.03;;;15.60;99.90;;;;;;5041701;28;20468;-90
2023/07/01 05:19:42;;;;;;;3.10;2.80;;;15.70;99.90;;;;;;5040993;28;20953;-91
2023/07/01 05:22:09;;;;;;;2.40;2.20;;;15.80;99.90;;;;;;5042454;28;20468;-88
2023/07/01 05:24:37;;;;;;;3.67;2.70;;;15.80;99.90;;;;;;5044740;28;20853;-90
2023/07/01 05:27:04;;;;;;;3.50;2.23;;;15.80;99.90;;;;;;5041055;28;20479;-90
2023/07/01 05:29:31;;;;;;;2.77;2.57;;;15.90;99.90;;;;;;5039699;28;20471;-91
2023/07/01 05:31:58;;;;;;;2.40;2.20;;;15.90;99.90;;;;;;5039756;28;20463;-91
2023/07/01 05:34:25;;;;;;;5.57;2.53;;;16.00;99.90;;;;;;5043677;28;20495;-91
2023/07/01 05:36:52;;;;;;;3.07;2.77;;;16.00;99.90;;;;;;5044212;28;20455;-90
2023/07/01 05:39:19;;;;;;;2.80;2.43;;;16.10;99.90;;;;;;5042598;28;20464;-90
2023/07/01 05:41:47;;;;;;;3.60;2.60;;;16.10;99.90;;;;;;5038589;28;20567;-90
2023/07/01 05:44:14;;;;;;;3.90;2.90;;;16.20;99.90;;;;;;5040835;28;20484;-90
2023/07/01 05:46:41;;;;;;;2.60;2.40;;;16.20;99.90;;;;;;5041470;28;20468;-91
2023/07/01 05:49:07;;;;;;;2.30;2.10;;;16.30;99.90;;;;;;5042300;28;20461;-91
2023/07/01 05:51:34;;;;;;;2.87;2.67;;;16.30;99.90;;;;;;5045384;28;20482;-90
2023/07/01 05:54:01;;;;;;;3.90;2.60;;;16.40;99.90;;;;;;5044445;28;20475;-90
2023/07/01 05:56:28;;;;;;;3.87;2.37;;;16.40;99.90;;;;;;5041902;28;20985;-90
2023/07/01 05:58:56;;;;;;;2.90;2.33;;;16.40;99.90;;;;;;5043469;28;20460;-90
2023/07/01 06:01:23;;;;;;;2.40;2.20;;;16.40;99.90;;;;;;5045548;28;20534;-90
2023/07/01 06:03:50;;;;;;;2.73;2.53;;;16.50;99.90;;;;;;5104479;22;20503;-71
2023/07/01 06:06:17;;;;;;;2.50;2.07;;;16.50;99.90;;;;;;5029698;28;20452;-72
2023/07/01 06:08:43;;;;;;;2.70;2.50;;;16.60;99.90;;;;;;5048497;28;20479;-72
2023/07/01 06:11:10;;;;;;;2.80;2.37;;;16.60;99.90;;;;;;5050108;28;20839;-72
2023/07/01 06:13:38;;;;;;;2.67;2.47;;;16.60;99.90;;;;;;5050764;28;20463;-73
2023/07/01 06:16:06;;;;;;;2.40;2.20;;;16.70;99.90;;;;;;5050000;28;20459;-73
2023/07/01 06:18:33;;;;;;;4.40;2.30;;;16.80;99.90;;;;;;5050867;28;21002;-73
2023/07/01 06:21:03;;;;;;;6.13;2.50;;;16.80;99.90;;;;;;5050514;28;20479;-72
2023/07/01 06:23:30;;;;;;;3.10;2.33;;;16.90;99.90;;;;;;5050753;28;20471;-72
2023/07/01 06:25:57;;;;;;;2.90;2.20;;;16.90;99.90;;;;;;5049530;28;20464;-71
2023/07/01 06:28:24;;;;;;;2.63;2.20;;;17.00;99.90;;;;;;5050083;28;20483;-71
2023/07/01 06:30:50;;;;;;;2.53;2.07;;;17.10;99.90;;;;;;5050470;28;20471;-71
2023/07/01 06:33:18;;;;;;;2.60;2.40;;;17.20;99.90;;;;;;5050177;28;20466;-70
2023/07/01 06:35:45;;;;;;;2.43;2.13;;;17.30;99.90;;;;;;5049575;28;20463;-70
2023/07/01 06:38:12;;;;;;;2.33;2.13;;;17.30;99.90;;;;;;5049753;28;20840;-71
2023/07/01 06:40:39;;;;;;;2.27;2.07;;;17.40;99.90;;;;;;5049866;28;20460;-72
2023/07/01 06:43:06;;;;;;;3.13;2.20;;;17.40;99.90;;;;;;5050108;28;20455;-72
2023/07/01 06:45:32;;;;;;;2.07;1.80;;;17.50;99.90;;;;;;5050065;28;20455;-72
2023/07/01 06:47:59;;;;;;;2.60;2.20;;;17.50;99.90;;;;;;5051786;28;20487;-72
2023/07/01 06:50:27;;;;;;;2.23;2.03;;;17.50;99.90;;;;;;5050393;28;20467;-73
2023/07/01 06:52:54;;;;;;;2.77;2.27;;;17.70;99.90;;;;;;5049663;28;20463;-71
2023/07/01 06:55:21;;;;;;;2.60;2.23;;;17.80;99.90;;;;;;5049486;28;21582;-70
2023/07/01 06:57:48;;;;;;;2.03;1.83;;;17.90;99.90;;;;;;5049700;28;20479;-69
2023/07/01 07:00:15;;;;;;;2.27;2.07;;;18.00;99.90;;;;;;5049064;28;20958;-70
2023/07/01 07:02:41;;;;;;;2.00;1.90;;;17.90;99.90;;;;;;5050162;28;20470;-69
2023/07/01 07:05:09;;;;;;;2.63;1.80;;;18.00;99.90;;;;;;5049022;28;20963;-69
2023/07/01 07:07:38;;;;;;;2.90;1.90;;;18.00;99.90;;;;;;5054518;28;20514;-69
2023/07/01 07:10:05;;;;;;;3.23;1.80;;;18.10;99.90;;;;;;5053491;28;20912;-70
2023/07/01 07:12:32;;;;;;;2.60;1.83;;;18.10;99.90;;;;;;5070294;28;20467;-69
2023/07/01 07:14:59;;;;;;;4.77;1.77;;;18.10;99.90;;;;;;5070300;28;20461;-69
2023/07/01 07:17:25;;;;;;;1.73;1.60;;;18.10;99.90;;;;;;5069229;28;20489;-69
2023/07/01 07:19:52;;;;;;;3.03;2.13;;;18.20;99.90;;;;;;5063387;28;20468;-69
2023/07/01 07:22:19;;;;;;;1.93;1.63;;;18.30;99.90;;;;;;5049814;28;20971;-69
2023/07/01 07:24:47;;;;;;;1.80;1.63;;;18.40;99.90;;;;;;5050036;28;20457;-69
2023/07/01 07:27:14;;;;;;;3.07;1.80;;;18.50;99.90;;;;;;5049380;28;20844;-69
2023/07/01 07:29:40;;;;;;;2.20;1.87;;;18.50;99.90;;;;;;5050145;28;20471;-71
2023/07/01 07:32:08;;;;;;;1.53;1.43;;;18.50;99.90;;;;;;5049824;28;20466;-71
2023/07/01 07:34:35;;;;;;;3.20;1.97;;;18.60;99.90;;;;;;5054552;28;20962;-71
2023/07/01 07:37:04;;;;;;;1.87;1.77;;;18.70;99.90;;;;;;5055604;28;20482;-71
2023/07/01 07:39:31;;;;;;;2.40;2.10;;;18.70;99.90;;;;;;5058045;28;20653;-71
2023/07/01 07:41:59;;;;;;;2.00;1.80;;;18.80;99.90;;;;;;5058146;28;20466;-71
2023/07/01 07:44:25;;;;;;;7.33;2.10;;;18.80;99.90;;;;;;5053416;28;20471;-71
2023/07/01 07:46:52;;;;;;;2.00;1.73;;;18.90;99.90;;;;;;5061752;28;20459;-71
2023/07/01 07:49:19;;;;;;;2.20;1.80;;;19.00;99.90;;;;;;5053226;28;21002;-71
2023/07/01 07:51:46;;;;;;;1.60;1.50;;;19.00;99.90;;;;;;5067855;28;20465;-71
2023/07/01 07:54:12;;;;;;;2.13;1.93;;;19.10;99.90;;;;;;5063844;28;20463;-71
2023/07/01 07:56:39;;;;;;;2.47;2.27;;;19.20;99.90;;;;;;5053167;28;20505;-71
2023/07/01 07:59:07;;;;;;;2.10;1.90;;;19.20;99.90;;;;;;5061826;28;20459;-71
2023/07/01 08:01:34;;;;;;;1.83;1.70;;;19.30;99.90;;;;;;5061917;28;20464;-71
2023/07/01 08:04:01;;;;;;;2.23;2.00;;;19.40;99.90;;;;;;5053259;28;20471;-71
2023/07/01 08:06:27;;;;;;;2.13;1.90;;;19.50;99.90;;;;;;5060972;28;20974;-71
2023/07/01 08:08:54;;;;;;;2.40;2.20;;;19.60;99.90;;;;;;5053331;28;20486;-71
2023/07/01 08:11:21;;;;;;;3.87;2.47;;;19.80;99.90;;;;;;5063481;28;20468;-71
2023/07/01 08:13:48;;;;;;;2.37;2.07;;;19.90;99.90;;;;;;5073117;28;21005;-71
2023/07/01 08:16:16;;;;;;;1.80;1.70;;;20.10;99.90;;;;;;5062869;28;20964;-71
2023/07/01 08:18:43;;;;;;;2.97;2.27;;;20.00;99.90;;;;;;5053046;28;20483;-71
2023/07/01 08:21:09;;;;;;;2.67;2.20;;;20.00;99.90;;;;;;5053628;28;20466;-71
2023/07/01 08:23:36;;;;;;;2.87;2.20;;;19.90;99.90;;;;;;5060722;28;20467;-72
2023/07/01 08:26:03;;;;;;;2.47;1.70;;;20.00;99.90;;;;;;5052734;28;20468;-72
2023/07/01 08:28:31;;;;;;;3.30;2.10;;;20.00;99.90;;;;;;5064044;28;20574;-72
2023/07/01 08:30:58;;;;;;;3.20;2.07;;;19.90;99.90;;;;;;5073122;28;20463;-72
2023/07/01 08:33:26;;;;;;;2.47;2.20;;;19.90;99.90;;;;;;5061850;28;20964;-72
2023/07/01 08:35:53;;;;;;;1.90;1.70;;;19.90;99.90;;;;;;5051935;28;20460;-72
2023/07/01 08:38:19;;;;;;;2.87;2.40;;;20.00;99.90;;;;;;5051817;28;20484;-72
2023/07/01 08:40:47;;;;;;;2.63;2.00;;;20.00;99.90;;;;;;5052681;28;20458;-72
2023/07/01 08:43:14;;;;;;;2.83;2.00;;;20.20;99.90;;;;;;5047948;28;20470;-72
2023/07/01 08:45:41;;;;;;;1.90;1.70;;;20.20;99.90;;;;;;5047933;28;20463;-72
2023/07/01 08:48:08;;;;;;;2.20;2.00;;;20.20;99.90;;;;;;5054999;28;20811;-73
2023/07/01 08:50:41;;;;;;;1.97;1.70;;;20.20;99.90;;;;;;5068384;28;20450;-72
2023/07/01 08:53:09;;;;;;;2.93;2.60;;;20.40;99.90;;;;;;5067737;28;20474;-70
2023/07/01 08:55:36;;;;;;;2.30;2.10;;;20.40;99.90;;;;;;5067793;28;20472;-70
2023/07/01 08:58:03;;;;;;;1.97;1.80;;;20.50;99.90;;;;;;5060165;28;20525;-72
2023/07/01 09:00:31;;;;;;;2.33;1.90;;;20.60;99.90;;;;;;5047691;28;20510;-72
2023/07/01 09:02:58;;;;;;;2.23;2.00;;;20.50;99.90;;;;;;5048483;28;20556;-72
2023/07/01 09:05:25;;;;;;;2.00;1.80;;;20.50;99.90;;;;;;5058406;28;20465;-72
2023/07/01 09:07:53;;;;;;;2.47;2.00;;;20.40;99.90;;;;;;5067708;28;20883;-72
2023/07/01 09:10:19;;;;;;;3.70;1.63;;;20.40;99.90;;;;;;5067872;28;20468;-73
2023/07/01 09:12:46;;;;;;;1.70;1.60;;;20.40;99.90;;;;;;5068100;28;20850;-73
2023/07/01 09:15:13;;;;;;;2.30;1.70;;;20.40;99.90;;;;;;5066979;28;20476;-72
2023/07/01 09:17:41;;;;;;;2.10;1.80;;;20.50;99.90;;;;;;5067120;28;20480;-72
2023/07/01 09:20:10;;;;;;;2.53;1.73;;;20.60;99.90;;;;;;5067400;28;20467;-72
2023/07/01 09:22:39;;;;;;;1.60;1.50;;;20.80;99.90;;;;;;5067490;28;20836;-72
2023/07/01 09:25:08;;;;;;;1.80;1.53;;;21.00;99.90;;;;;;5067013;28;21134;-72
2023/07/01 09:27:41;;;;;;;1.80;1.70;;;21.00;99.90;;;;;;5067167;28;20487;-72
2023/07/01 09:30:24;;;;;;;1.70;1.60;;;21.30;99.90;;;;;;5067047;28;20501;-72
2023/07/01 09:32:51;;;;;;;2.17;1.50;;;21.40;99.90;;;;;;5067092;28;20462;-72
2023/07/01 09:35:18;;;;;;;2.60;1.70;;;21.60;99.90;;;;;;5065637;28;21013;-72
2023/07/01 09:37:45;;;;;;;2.10;1.47;;;21.70;99.90;;;;;;5046844;28;20482;-72
2023/07/01 09:40:21;;;;;;;1.90;1.33;;;21.80;99.90;;;;;;5046919;28;20459;-72
2023/07/01 09:42:51;;;;;;;1.70;1.47;;;21.80;99.90;;;;;;5060775;28;20486;-71
2023/07/01 09:45:18;;;;;;;3.43;1.70;;;21.80;99.70;;;;;;5066935;28;20482;-72
2023/07/01 09:47:45;;;;;;;1.70;1.60;;;21.70;99.90;;;;;;5067246;28;20485;-72
2023/07/01 09:50:21;;;;;;;2.40;1.53;;;21.70;99.90;;;;;;5066928;28;20581;-70
2023/07/01 09:52:48;;;;;;;2.60;1.63;;;21.70;99.20;;;;;;5066845;28;20462;-70
2023/07/01 09:55:15;;;;;;;2.00;1.80;;;21.70;99.60;;;;;;5066197;28;20506;-70
2023/07/01 09:57:44;;;;;;;1.40;1.27;;;21.60;99.50;;;;;;5066513;28;20489;-70
2023/07/01 10:00:15;;;;;;;2.30;1.90;;;21.40;98.70;;;;;;5065694;28;20466;-70
2023/07/01 10:02:43;;;;;;;1.70;1.50;;;21.40;99.00;;;;;;5066822;28;20517;-70
2023/07/01 10:05:10;;;;;;;4.00;1.63;;;21.40;98.50;;;;;;5065809;28;20467;-70
2023/07/01 10:07:37;;;;;;;3.93;2.03;;;21.50;97.80;;;;;;5037831;28;20489;-70
2023/07/01 10:10:04;;;;;;;2.63;2.10;;;21.50;98.00;;;;;;5045848;28;20487;-70
2023/07/01 10:12:32;;;;;;;2.13;1.87;;;21.60;98.80;;;;;;5046231;28;20885;-71
2023/07/01 10:15:01;;;;;;;3.77;1.77;;;21.70;99.90;;;;;;5046439;28;20467;-70
2023/07/01 10:17:45;;;;;;;2.60;1.63;;;21.80;98.20;;;;;;5046276;28;20486;-70
2023/07/01 10:20:25;;;;;;;2.43;1.97;;;22.00;99.90;;;;;;5046513;28;20464;-70
2023/07/01 10:22:54;;;;;;;2.17;1.70;;;22.20;99.90;;;;;;5046909;28;20503;-70
2023/07/01 10:25:30;;;;;;;2.90;2.03;;;22.30;98.90;;;;;;5046034;28;20464;-70
2023/07/01 10:28:15;;;;;;;2.43;1.70;;;22.30;99.40;;;;;;5046153;28;20507;-70
2023/07/01 10:31:14;;;;;;;1.80;1.70;;;22.30;98.70;;;;;;5046555;28;20924;-70
2023/07/01 10:34:04;;;;;;;2.17;1.70;;;22.40;99.40;;;;;;5046619;28;20463;-70
2023/07/01 10:36:32;;;;;;;1.73;1.50;;;22.50;98.90;;;;;;5046007;28;20822;-70
2023/07/01 10:39:30;;;;;;;2.07;1.87;;;22.60;99.20;;;;;;5046701;28;20562;-70
2023/07/01 10:41:57;;;;;;;4.30;2.27;;;22.80;99.80;;;;;;5047211;28;20455;-70
2023/07/01 10:44:25;;;;;;;3.20;2.17;;;23.00;98.80;;;;;;5046264;28;20469;-70
2023/07/01 10:47:16;;;;;;;2.43;1.97;;;23.00;96.70;;;;;;5046085;28;20488;-72
2023/07/01 10:50:04;;;;;;;2.80;2.17;;;22.90;96.80;;;;;;5038921;28;20478;-72
2023/07/01 10:52:32;;;;;;;2.90;2.20;;;22.70;96.80;;;;;;5046422;28;20470;-72
2023/07/01 10:55:02;;;;;;;5.20;2.50;;;22.70;97.60;;;;;;5052361;28;20489;-72
2023/07/01 10:57:30;;;;;;;2.30;2.10;;;22.60;96.10;;;;;;5065874;28;20491;-72
2023/07/01 11:00:30;;;;;;;2.33;2.13;;;22.60;96.20;;;;;;5052084;28;20473;-72
2023/07/01 11:02:58;;;;;;;2.77;2.50;;;22.60;96.70;;;;;;5046033;28;20904;-72
2023/07/01 11:05:28;;;;;;;2.13;1.90;;;22.60;96.70;;;;;;5045785;28;20462;-72
2023/07/01 11:07:57;;;;;;;3.47;2.10;;;22.60;96.20;;;;;;5045315;28;20475;-72
2023/07/01 11:10:24;;;;;;;3.27;2.60;;;22.50;96.60;;;;;;5045741;28;20484;-72
2023/07/01 11:12:51;;;;;;;2.57;2.37;;;22.50;96.40;;;;;;5049921;28;20463;-72
2023/07/01 11:15:18;;;;;;;2.47;2.27;;;22.40;96.80;;;;;;5050080;28;20468;-72
2023/07/01 11:17:58;;;;;;;2.73;2.30;;;22.40;96.40;;;;;;5051390;28;20492;-72
2023/07/01 11:20:25;;;;;;;3.43;2.20;;;22.50;98.00;;;;;;5050596;28;20467;-72
2023/07/01 11:22:52;;;;;;;4.93;2.63;;;22.50;97.40;;;;;;5073439;28;20480;-71
2023/07/01 11:25:18;;;;;;;2.60;2.10;;;22.50;97.30;;;;;;5072353;28;20864;-70
2023/07/01 11:27:45;;;;;;;3.43;2.30;;;22.50;97.50;;;;;;5073208;28;20485;-70
2023/07/01 11:30:31;;;;;;;3.70;2.27;;;22.50;97.70;;;;;;5072386;28;20475;-71
2023/07/01 11:33:11;;;;;;;4.80;2.60;;;22.40;96.10;;;;;;5067929;28;20881;-70
2023/07/01 11:35:50;;;;;;;2.70;2.47;;;22.40;94.80;;;;;;5052775;28;20464;-72
2023/07/01 11:38:25;;;;;;;3.57;2.70;;;22.40;95.90;;;;;;5052277;28;20563;-73
2023/07/01 11:40:52;;;;;;;2.40;2.13;;;22.30;96.10;;;;;;5052953;28;20463;-72
2023/07/01 11:43:21;;;;;;;2.50;2.30;;;22.30;97.10;;;;;;5052671;28;20476;-72
2023/07/01 11:45:50;;;;;;;2.23;1.83;;;22.20;97.30;;;;;;5052864;28;20468;-72
2023/07/01 11:48:29;;;;;;;1.90;1.70;;;22.20;96.50;;;;;;5052613;28;21321;-72
2023/07/01 11:50:56;;;;;;;2.43;2.20;;;22.20;97.90;;;;;;5046201;28;20514;-72
2023/07/01 11:53:23;;;;;;;3.60;2.17;;;22.20;98.10;;;;;;5052748;28;20637;-72
2023/07/01 11:55:50;;;;;;;2.03;1.80;;;22.20;97.90;;;;;;5067989;28;20472;-73
2023/07/01 11:58:30;;;;;;;2.50;2.10;;;22.10;97.70;;;;;;5052056;28;20486;-72
2023/07/01 12:00:57;;;;;;;3.90;2.57;;;22.10;97.60;;;;;;5052350;28;20906;-72
2023/07/01 12:03:26;;;;;;;3.07;2.50;;;22.10;98.10;;;;;;5052114;28;20475;-73
2023/07/01 12:05:52;;;;;;;2.13;1.90;;;22.00;98.50;;;;;;5064419;22;20634;-91
2023/07/01 12:08:19;;;;;;;2.00;1.70;;;21.90;98.60;;;;;;5039447;28;20461;-91
2023/07/01 12:10:46;;;;;;;1.90;1.67;;;21.80;98.90;;;;;;5040727;28;20591;-91
2023/07/01 12:13:31;;;;;;;3.27;1.93;;;21.80;99.30;;;;;;5040087;28;20555;-91
2023/07/01 12:15:59;;;;;;;2.97;2.27;;;21.70;98.90;;;;;;5060088;28;20578;-90
2023/07/01 12:18:29;;;;;;;2.50;1.83;;;21.70;98.80;;;;;;5061733;28;20482;-91
2023/07/01 12:20:56;;;;;;;2.40;1.77;;;21.60;99.20;;;;;;5062116;28;20456;-91
2023/07/01 12:23:24;;;;;;;2.50;1.70;;;21.50;99.30;;;;;;5060838;28;20465;-91
2023/07/01 12:25:52;;;;;;;2.13;1.90;;;21.40;99.00;;;;;;5060981;28;20486;-91
2023/07/01 12:28:22;;;;;;;2.57;2.00;;;21.40;99.90;;;;;;5061578;28;20484;-91
2023/07/01 12:30:50;;;;;;;2.10;1.90;;;21.40;99.60;;;;;;5060214;28;21109;-91
2023/07/01 12:33:17;;;;;;;1.90;1.43;;;21.30;99.40;;;;;;5061281;28;20510;-91
2023/07/01 12:35:45;;;;;;;1.97;1.77;;;21.40;99.30;;;;;;5062900;28;20483;-91
2023/07/01 12:38:13;;;;;;;2.80;1.47;;;21.40;99.30;;;;;;5065679;28;20460;-89
2023/07/01 12:40:40;;;;;;;1.70;1.60;;;21.40;99.80;;;;;;5065640;28;20457;-91
2023/07/01 12:43:08;;;;;;;1.30;1.20;;;21.40;99.50;;;;;;5064747;28;20459;-89
2023/07/01 12:45:34;;;;;;;1.93;1.33;;;21.40;99.80;;;;;;5061672;28;20481;-89
2023/07/01 12:48:01;;;;;;;2.00;1.70;;;21.40;99.80;;;;;;5059521;28;20456;-90
2023/07/01 12:50:28;;;;;;;1.70;1.60;;;21.40;99.90;;;;;;5058769;28;20483;-91
2023/07/01 12:52:57;;;;;;;3.20;1.90;;;21.40;99.80;;;;;;5058894;28;20563;-90
2023/07/01 12:55:24;;;;;;;1.70;1.40;;;21.40;99.90;;;;;;5059208;28;20479;-90